sensor_id;sensor_type;location;lat;lon;timestamp;pressure;altitude;pressure_sealevel;temperature;humidity
33151;BME280;19508;42.578;23.416;2023-08-08T00:00:20;93555.28;;;17.14;90.19
33151;BME280;19508;42.578;23.416;2023-08-08T00:02:46;93549.22;;;17.04;91.58
33151;BME280;19508;42.578;23.416;2023-08-08T00:05:12;93552.25;;;17.02;92.14
33151;BME280;19508;42.578;23.416;2023-08-08T00:07:37;93538.22;;;16.95;92.56
33151;BME280;19508;42.578;23.416;2023-08-08T00:10:04;93538.03;;;17.05;92.52
33151;BME280;19508;42.578;23.416;2023-08-08T00:12:30;93543.97;;;17.07;92.29
33151;BME280;19508;42.578;23.416;2023-08-08T00:14:55;93549.84;;;17.14;92.34
33151;BME280;19508;42.578;23.416;2023-08-08T00:17:21;93551.81;;;16.95;91.35
33151;BME280;19508;42.578;23.416;2023-08-08T00:23:09;93564.81;;;16.98;91.77
33151;BME280;19508;42.578;23.416;2023-08-08T00:25:35;93569.31;;;16.89;93.17
33151;BME280;19508;42.578;23.416;2023-08-08T00:28:01;93569.25;;;16.94;93.00
33151;BME280;19508;42.578;23.416;2023-08-08T00:30:26;93591.44;;;17.01;92.19
33151;BME280;19508;42.578;23.416;2023-08-08T00:32:52;93585.69;;;17.03;91.96
33151;BME280;19508;42.578;23.416;2023-08-08T00:35:17;93583.28;;;17.01;92.32
33151;BME280;19508;42.578;23.416;2023-08-08T00:37:43;93571.78;;;17.04;92.35
33151;BME280;19508;42.578;23.416;2023-08-08T00:40:08;93578.16;;;17.13;91.58
33151;BME280;19508;42.578;23.416;2023-08-08T00:42:34;93569.66;;;17.01;92.63
33151;BME280;19508;42.578;23.416;2023-08-08T00:45:01;93566.25;;;17.09;91.35
33151;BME280;19508;42.578;23.416;2023-08-08T00:47:31;93579.69;;;17.19;91.07
33151;BME280;19508;42.578;23.416;2023-08-08T00:49:59;93583.50;;;17.18;91.01
33151;BME280;19508;42.578;23.416;2023-08-08T00:52:26;93584.09;;;17.15;89.91
33151;BME280;19508;42.578;23.416;2023-08-08T00:54:52;93579.88;;;17.09;89.94
33151;BME280;19508;42.578;23.416;2023-08-08T00:57:19;93579.88;;;17.09;90.09
33151;BME280;19508;42.578;23.416;2023-08-08T00:59:48;93571.16;;;17.07;90.72
33151;BME280;19508;42.578;23.416;2023-08-08T01:02:17;93563.53;;;17.09;90.02
33151;BME280;19508;42.578;23.416;2023-08-08T01:04:42;93569.06;;;17.04;90.55
33151;BME280;19508;42.578;23.416;2023-08-08T01:07:22;93558.03;;;16.82;91.19
33151;BME280;19508;42.578;23.416;2023-08-08T01:10:13;93574.19;;;16.92;90.40
33151;BME280;19508;42.578;23.416;2023-08-08T01:16:03;93577.16;;;16.77;89.27
33151;BME280;19508;42.578;23.416;2023-08-08T01:18:33;93580.50;;;16.87;89.74
33151;BME280;19508;42.578;23.416;2023-08-08T01:21:01;93584.03;;;16.88;89.91
33151;BME280;19508;42.578;23.416;2023-08-08T01:27:01;93587.13;;;16.62;88.80
33151;BME280;19508;42.578;23.416;2023-08-08T01:29:27;93582.09;;;16.37;88.70
33151;BME280;19508;42.578;23.416;2023-08-08T01:31:53;93581.13;;;16.47;88.32
33151;BME280;19508;42.578;23.416;2023-08-08T01:34:19;93597.19;;;16.62;87.57
33151;BME280;19508;42.578;23.416;2023-08-08T01:39:50;93585.94;;;16.17;87.33
33151;BME280;19508;42.578;23.416;2023-08-08T01:42:18;93599.50;;;16.17;86.65
33151;BME280;19508;42.578;23.416;2023-08-08T01:44:48;93607.50;;;16.27;86.42
33151;BME280;19508;42.578;23.416;2023-08-08T01:47:13;93610.16;;;16.32;86.47
33151;BME280;19508;42.578;23.416;2023-08-08T01:49:40;93607.22;;;16.29;86.59
33151;BME280;19508;42.578;23.416;2023-08-08T01:52:06;93623.91;;;16.41;86.88
33151;BME280;19508;42.578;23.416;2023-08-08T01:54:32;93618.66;;;16.07;88.29
33151;BME280;19508;42.578;23.416;2023-08-08T01:56:57;93629.69;;;16.16;88.14
33151;BME280;19508;42.578;23.416;2023-08-08T01:59:23;93631.66;;;16.29;85.92
33151;BME280;19508;42.578;23.416;2023-08-08T02:01:48;93623.22;;;16.12;85.46
33151;BME280;19508;42.578;23.416;2023-08-08T02:04:14;93634.75;;;15.79;87.15
33151;BME280;19508;42.578;23.416;2023-08-08T02:06:39;93632.91;;;15.75;87.68
33151;BME280;19508;42.578;23.416;2023-08-08T02:09:04;93637.41;;;15.61;87.24
33151;BME280;19508;42.578;23.416;2023-08-08T02:11:31;93635.03;;;15.78;87.23
33151;BME280;19508;42.578;23.416;2023-08-08T02:13:56;93627.03;;;15.68;87.68
33151;BME280;19508;42.578;23.416;2023-08-08T02:16:21;93627.41;;;15.80;86.92
33151;BME280;19508;42.578;23.416;2023-08-08T02:18:47;93636.88;;;15.59;87.37
33151;BME280;19508;42.578;23.416;2023-08-08T02:21:12;93653.97;;;15.59;87.69
33151;BME280;19508;42.578;23.416;2023-08-08T02:23:38;93663.94;;;15.40;88.06
33151;BME280;19508;42.578;23.416;2023-08-08T02:26:03;93662.53;;;15.42;87.67
33151;BME280;19508;42.578;23.416;2023-08-08T02:28:28;93671.50;;;15.43;88.07
33151;BME280;19508;42.578;23.416;2023-08-08T02:30:54;93671.16;;;15.49;88.56
33151;BME280;19508;42.578;23.416;2023-08-08T02:33:20;93667.16;;;15.42;89.42
33151;BME280;19508;42.578;23.416;2023-08-08T02:35:45;93653.56;;;15.18;90.38
33151;BME280;19508;42.578;23.416;2023-08-08T02:38:11;93666.41;;;15.07;90.78
33151;BME280;19508;42.578;23.416;2023-08-08T02:40:36;93665.41;;;15.27;89.65
33151;BME280;19508;42.578;23.416;2023-08-08T02:43:01;93696.59;;;15.30;90.79
33151;BME280;19508;42.578;23.416;2023-08-08T02:45:27;93697.84;;;15.37;89.10
33151;BME280;19508;42.578;23.416;2023-08-08T02:47:52;93695.84;;;15.19;89.09
33151;BME280;19508;42.578;23.416;2023-08-08T02:50:18;93690.91;;;15.26;89.22
33151;BME280;19508;42.578;23.416;2023-08-08T02:52:43;93682.19;;;15.29;89.20
33151;BME280;19508;42.578;23.416;2023-08-08T02:55:08;93678.25;;;15.16;90.08
33151;BME280;19508;42.578;23.416;2023-08-08T02:57:34;93678.66;;;15.29;89.27
33151;BME280;19508;42.578;23.416;2023-08-08T02:59:59;93683.50;;;15.08;90.10
33151;BME280;19508;42.578;23.416;2023-08-08T03:02:25;93684.53;;;15.12;90.46
33151;BME280;19508;42.578;23.416;2023-08-08T03:04:51;93690.41;;;15.24;90.92
33151;BME280;19508;42.578;23.416;2023-08-08T03:07:16;93695.50;;;15.31;88.95
33151;BME280;19508;42.578;23.416;2023-08-08T03:09:41;93707.72;;;15.28;89.74
33151;BME280;19508;42.578;23.416;2023-08-08T03:12:07;93710.91;;;15.35;90.01
33151;BME280;19508;42.578;23.416;2023-08-08T03:14:33;93710.34;;;15.38;89.47
33151;BME280;19508;42.578;23.416;2023-08-08T03:16:59;93699.25;;;15.35;89.64
33151;BME280;19508;42.578;23.416;2023-08-08T03:19:24;93690.19;;;15.44;89.81
33151;BME280;19508;42.578;23.416;2023-08-08T03:21:50;93698.22;;;15.55;89.42
33151;BME280;19508;42.578;23.416;2023-08-08T03:24:15;93697.31;;;15.40;92.57
33151;BME280;19508;42.578;23.416;2023-08-08T03:26:41;93703.44;;;15.22;92.98
33151;BME280;19508;42.578;23.416;2023-08-08T03:29:06;93703.16;;;15.23;93.21
33151;BME280;19508;42.578;23.416;2023-08-08T03:31:35;93708.81;;;15.27;93.82
33151;BME280;19508;42.578;23.416;2023-08-08T03:34:00;93705.53;;;15.30;93.35
33151;BME280;19508;42.578;23.416;2023-08-08T03:36:26;93713.38;;;15.32;93.41
33151;BME280;19508;42.578;23.416;2023-08-08T03:38:51;93711.38;;;15.42;92.31
33151;BME280;19508;42.578;23.416;2023-08-08T03:41:17;93722.59;;;15.65;91.57
33151;BME280;19508;42.578;23.416;2023-08-08T03:43:42;93725.13;;;15.51;92.27
33151;BME280;19508;42.578;23.416;2023-08-08T03:46:07;93722.47;;;15.46;92.90
33151;BME280;19508;42.578;23.416;2023-08-08T03:48:33;93733.94;;;15.38;93.12
33151;BME280;19508;42.578;23.416;2023-08-08T03:50:59;93726.56;;;15.43;92.52
33151;BME280;19508;42.578;23.416;2023-08-08T03:53:25;93734.69;;;15.43;92.02
33151;BME280;19508;42.578;23.416;2023-08-08T03:55:50;93735.75;;;15.47;91.82
33151;BME280;19508;42.578;23.416;2023-08-08T03:58:16;93733.09;;;15.42;92.07
33151;BME280;19508;42.578;23.416;2023-08-08T04:00:42;93719.97;;;15.20;92.48
33151;BME280;19508;42.578;23.416;2023-08-08T04:03:13;93718.53;;;15.33;91.29
33151;BME280;19508;42.578;23.416;2023-08-08T04:05:41;93727.53;;;15.58;90.48
33151;BME280;19508;42.578;23.416;2023-08-08T04:08:07;93732.44;;;15.56;90.70
33151;BME280;19508;42.578;23.416;2023-08-08T04:10:32;93737.78;;;15.66;91.06
33151;BME280;19508;42.578;23.416;2023-08-08T04:12:58;93742.63;;;15.69;90.82
33151;BME280;19508;42.578;23.416;2023-08-08T04:15:30;93733.63;;;15.73;90.62
33151;BME280;19508;42.578;23.416;2023-08-08T04:17:55;93753.81;;;15.91;90.24
33151;BME280;19508;42.578;23.416;2023-08-08T04:20:21;93749.69;;;15.94;89.77
33151;BME280;19508;42.578;23.416;2023-08-08T04:22:47;93754.31;;;15.93;90.16
33151;BME280;19508;42.578;23.416;2023-08-08T04:25:12;93760.97;;;16.06;89.45
33151;BME280;19508;42.578;23.416;2023-08-08T04:27:37;93768.03;;;16.07;89.96
33151;BME280;19508;42.578;23.416;2023-08-08T04:30:05;93763.94;;;16.10;89.81
33151;BME280;19508;42.578;23.416;2023-08-08T04:32:31;93766.81;;;16.18;89.55
33151;BME280;19508;42.578;23.416;2023-08-08T04:34:56;93765.28;;;16.31;89.64
33151;BME280;19508;42.578;23.416;2023-08-08T04:37:21;93765.75;;;16.38;89.52
33151;BME280;19508;42.578;23.416;2023-08-08T04:39:47;93773.84;;;16.43;88.52
33151;BME280;19508;42.578;23.416;2023-08-08T04:42:14;93775.53;;;16.39;89.23
33151;BME280;19508;42.578;23.416;2023-08-08T04:44:39;93778.94;;;16.50;88.83
33151;BME280;19508;42.578;23.416;2023-08-08T04:47:06;93772.13;;;16.52;88.74
33151;BME280;19508;42.578;23.416;2023-08-08T04:49:36;93767.69;;;16.56;88.97
33151;BME280;19508;42.578;23.416;2023-08-08T04:52:02;93774.06;;;16.71;88.67
33151;BME280;19508;42.578;23.416;2023-08-08T04:54:29;93767.03;;;16.64;87.77
33151;BME280;19508;42.578;23.416;2023-08-08T04:56:54;93779.97;;;16.54;88.54
33151;BME280;19508;42.578;23.416;2023-08-08T04:59:27;93777.69;;;16.85;88.74
33151;BME280;19508;42.578;23.416;2023-08-08T05:01:54;93774.38;;;16.88;87.92
33151;BME280;19508;42.578;23.416;2023-08-08T05:04:20;93771.97;;;16.86;87.48
33151;BME280;19508;42.578;23.416;2023-08-08T05:06:56;93762.03;;;16.96;86.50
33151;BME280;19508;42.578;23.416;2023-08-08T05:09:24;93777.41;;;17.05;86.00
33151;BME280;19508;42.578;23.416;2023-08-08T05:11:52;93775.97;;;17.08;86.07
33151;BME280;19508;42.578;23.416;2023-08-08T05:14:19;93791.81;;;17.06;85.29
33151;BME280;19508;42.578;23.416;2023-08-08T05:16:44;93804.28;;;17.07;83.97
33151;BME280;19508;42.578;23.416;2023-08-08T05:19:13;93808.78;;;17.16;84.08
33151;BME280;19508;42.578;23.416;2023-08-08T05:21:39;93812.31;;;17.36;84.62
33151;BME280;19508;42.578;23.416;2023-08-08T05:24:04;93829.13;;;17.57;82.67
33151;BME280;19508;42.578;23.416;2023-08-08T05:26:30;93820.75;;;17.72;82.01
33151;BME280;19508;42.578;23.416;2023-08-08T05:28:56;93822.41;;;17.87;80.67
33151;BME280;19508;42.578;23.416;2023-08-08T05:31:21;93835.78;;;18.16;79.47
33151;BME280;19508;42.578;23.416;2023-08-08T05:33:48;93835.69;;;18.07;79.78
33151;BME280;19508;42.578;23.416;2023-08-08T05:36:14;93841.28;;;18.29;76.35
33151;BME280;19508;42.578;23.416;2023-08-08T05:38:39;93832.63;;;18.55;73.85
33151;BME280;19508;42.578;23.416;2023-08-08T05:41:06;93839.38;;;18.71;71.86
33151;BME280;19508;42.578;23.416;2023-08-08T05:43:32;93834.97;;;18.75;72.62
33151;BME280;19508;42.578;23.416;2023-08-08T05:45:57;93834.72;;;18.44;70.62
33151;BME280;19508;42.578;23.416;2023-08-08T05:48:23;93836.53;;;18.21;72.82
33151;BME280;19508;42.578;23.416;2023-08-08T05:50:48;93847.88;;;18.10;71.74
33151;BME280;19508;42.578;23.416;2023-08-08T05:53:13;93843.91;;;17.69;72.84
33151;BME280;19508;42.578;23.416;2023-08-08T05:55:41;93861.44;;;17.63;72.66
33151;BME280;19508;42.578;23.416;2023-08-08T05:58:08;93837.59;;;17.74;73.41
33151;BME280;19508;42.578;23.416;2023-08-08T06:00:34;93852.28;;;17.92;70.51
33151;BME280;19508;42.578;23.416;2023-08-08T06:03:01;93864.53;;;18.54;70.32
33151;BME280;19508;42.578;23.416;2023-08-08T06:05:27;93861.91;;;18.63;70.57
33151;BME280;19508;42.578;23.416;2023-08-08T06:07:53;93868.28;;;18.86;69.24
33151;BME280;19508;42.578;23.416;2023-08-08T06:10:20;93872.28;;;18.61;70.03
33151;BME280;19508;42.578;23.416;2023-08-08T06:12:46;93870.56;;;18.38;69.41
33151;BME280;19508;42.578;23.416;2023-08-08T06:15:11;93871.59;;;17.76;68.86
33151;BME280;19508;42.578;23.416;2023-08-08T06:17:37;93867.63;;;17.69;70.56
33151;BME280;19508;42.578;23.416;2023-08-08T06:20:02;93876.38;;;17.47;71.94
33151;BME280;19508;42.578;23.416;2023-08-08T06:22:28;93885.66;;;17.46;71.55
33151;BME280;19508;42.578;23.416;2023-08-08T06:24:53;93881.81;;;17.28;72.08
33151;BME280;19508;42.578;23.416;2023-08-08T06:27:19;93868.72;;;17.49;72.12
33151;BME280;19508;42.578;23.416;2023-08-08T06:29:45;93880.88;;;17.75;69.06
33151;BME280;19508;42.578;23.416;2023-08-08T06:32:10;93869.66;;;17.96;66.20
33151;BME280;19508;42.578;23.416;2023-08-08T06:34:35;93866.28;;;18.18;67.09
33151;BME280;19508;42.578;23.416;2023-08-08T06:37:01;93868.88;;;19.24;65.45
33151;BME280;19508;42.578;23.416;2023-08-08T06:39:26;93866.88;;;20.11;60.53
33151;BME280;19508;42.578;23.416;2023-08-08T06:41:52;93862.50;;;20.94;59.72
33151;BME280;19508;42.578;23.416;2023-08-08T06:44:17;93850.38;;;21.35;54.23
33151;BME280;19508;42.578;23.416;2023-08-08T06:46:43;93848.00;;;21.59;52.12
33151;BME280;19508;42.578;23.416;2023-08-08T06:49:08;93846.50;;;22.48;50.21
33151;BME280;19508;42.578;23.416;2023-08-08T06:51:34;93856.38;;;22.23;49.63
33151;BME280;19508;42.578;23.416;2023-08-08T06:54:01;93859.59;;;22.26;50.45
33151;BME280;19508;42.578;23.416;2023-08-08T06:56:26;93855.91;;;23.15;47.97
33151;BME280;19508;42.578;23.416;2023-08-08T06:58:53;93857.25;;;23.09;46.78
33151;BME280;19508;42.578;23.416;2023-08-08T07:01:18;93862.28;;;22.98;47.05
33151;BME280;19508;42.578;23.416;2023-08-08T07:03:44;93868.69;;;23.41;47.95
33151;BME280;19508;42.578;23.416;2023-08-08T07:06:10;93868.78;;;23.23;46.75
33151;BME280;19508;42.578;23.416;2023-08-08T07:08:35;93868.91;;;23.86;44.29
33151;BME280;19508;42.578;23.416;2023-08-08T07:11:02;93869.25;;;24.05;45.57
33151;BME280;19508;42.578;23.416;2023-08-08T07:13:27;93866.00;;;24.24;43.47
33151;BME280;19508;42.578;23.416;2023-08-08T07:15:53;93877.19;;;22.80;45.12
33151;BME280;19508;42.578;23.416;2023-08-08T07:18:18;93884.09;;;21.96;46.70
33151;BME280;19508;42.578;23.416;2023-08-08T07:20:46;93880.66;;;21.30;48.14
33151;BME280;19508;42.578;23.416;2023-08-08T07:23:12;93874.59;;;21.67;48.69
33151;BME280;19508;42.578;23.416;2023-08-08T07:25:37;93878.13;;;21.94;47.25
33151;BME280;19508;42.578;23.416;2023-08-08T07:28:03;93875.56;;;22.06;48.27
33151;BME280;19508;42.578;23.416;2023-08-08T07:30:28;93875.06;;;21.95;48.00
33151;BME280;19508;42.578;23.416;2023-08-08T07:32:54;93887.97;;;21.78;49.57
33151;BME280;19508;42.578;23.416;2023-08-08T07:35:19;93882.59;;;21.29;47.73
33151;BME280;19508;42.578;23.416;2023-08-08T07:37:45;93904.28;;;21.26;48.08
33151;BME280;19508;42.578;23.416;2023-08-08T07:40:17;93890.69;;;20.64;48.13
33151;BME280;19508;42.578;23.416;2023-08-08T07:42:44;93883.75;;;20.58;50.56
33151;BME280;19508;42.578;23.416;2023-08-08T07:45:10;93883.84;;;20.83;49.26
33151;BME280;19508;42.578;23.416;2023-08-08T07:47:35;93889.06;;;20.94;47.86
33151;BME280;19508;42.578;23.416;2023-08-08T07:50:00;93868.63;;;21.48;49.42
33151;BME280;19508;42.578;23.416;2023-08-08T07:52:26;93880.22;;;21.36;50.86
33151;BME280;19508;42.578;23.416;2023-08-08T07:54:51;93872.34;;;21.87;45.53
33151;BME280;19508;42.578;23.416;2023-08-08T07:57:17;93874.63;;;22.11;44.99
33151;BME280;19508;42.578;23.416;2023-08-08T07:59:42;93872.97;;;22.36;44.79
33151;BME280;19508;42.578;23.416;2023-08-08T08:02:08;93872.03;;;22.32;42.88
33151;BME280;19508;42.578;23.416;2023-08-08T08:04:33;93874.53;;;22.54;44.10
33151;BME280;19508;42.578;23.416;2023-08-08T08:07:00;93870.19;;;22.53;46.27
33151;BME280;19508;42.578;23.416;2023-08-08T08:09:25;93872.53;;;22.72;47.67
33151;BME280;19508;42.578;23.416;2023-08-08T08:11:50;93858.75;;;22.51;42.81
33151;BME280;19508;42.578;23.416;2023-08-08T08:14:16;93862.97;;;22.40;43.30
33151;BME280;19508;42.578;23.416;2023-08-08T08:16:41;93865.47;;;22.62;44.02
33151;BME280;19508;42.578;23.416;2023-08-08T08:19:06;93863.03;;;22.69;43.87
33151;BME280;19508;42.578;23.416;2023-08-08T08:21:32;93862.00;;;23.00;42.15
33151;BME280;19508;42.578;23.416;2023-08-08T08:23:57;93865.06;;;23.28;41.65
33151;BME280;19508;42.578;23.416;2023-08-08T08:26:23;93860.84;;;23.01;43.70
33151;BME280;19508;42.578;23.416;2023-08-08T08:28:48;93867.34;;;22.88;42.98
33151;BME280;19508;42.578;23.416;2023-08-08T08:31:13;93862.09;;;22.65;44.66
33151;BME280;19508;42.578;23.416;2023-08-08T08:33:39;93854.91;;;22.35;43.27
33151;BME280;19508;42.578;23.416;2023-08-08T08:36:05;93862.03;;;22.18;44.14
33151;BME280;19508;42.578;23.416;2023-08-08T08:38:31;93858.44;;;22.35;44.11
33151;BME280;19508;42.578;23.416;2023-08-08T08:40:58;93867.88;;;22.64;43.35
33151;BME280;19508;42.578;23.416;2023-08-08T08:43:24;93860.66;;;23.06;42.84
33151;BME280;19508;42.578;23.416;2023-08-08T08:45:52;93865.56;;;23.59;41.80
33151;BME280;19508;42.578;23.416;2023-08-08T08:48:21;93865.34;;;23.35;42.90
33151;BME280;19508;42.578;23.416;2023-08-08T08:50:48;93867.56;;;23.71;41.70
33151;BME280;19508;42.578;23.416;2023-08-08T08:53:14;93858.06;;;23.69;42.16
33151;BME280;19508;42.578;23.416;2023-08-08T08:55:41;93859.56;;;24.20;41.36
33151;BME280;19508;42.578;23.416;2023-08-08T08:58:06;93863.78;;;24.38;40.93
33151;BME280;19508;42.578;23.416;2023-08-08T09:00:32;93862.31;;;24.41;40.69
33151;BME280;19508;42.578;23.416;2023-08-08T09:02:59;93858.84;;;24.11;40.27
33151;BME280;19508;42.578;23.416;2023-08-08T09:05:25;93861.34;;;24.04;41.46
33151;BME280;19508;42.578;23.416;2023-08-08T09:07:51;93856.22;;;23.73;41.28
33151;BME280;19508;42.578;23.416;2023-08-08T09:10:18;93880.91;;;23.60;42.82
33151;BME280;19508;42.578;23.416;2023-08-08T09:12:44;93868.31;;;23.80;43.37
33151;BME280;19508;42.578;23.416;2023-08-08T09:15:11;93869.16;;;24.14;42.99
33151;BME280;19508;42.578;23.416;2023-08-08T09:17:40;93874.13;;;24.00;42.58
33151;BME280;19508;42.578;23.416;2023-08-08T09:20:07;93871.44;;;23.41;39.73
33151;BME280;19508;42.578;23.416;2023-08-08T09:22:33;93867.19;;;24.02;39.76
33151;BME280;19508;42.578;23.416;2023-08-08T09:24:58;93868.25;;;23.68;41.85
33151;BME280;19508;42.578;23.416;2023-08-08T09:27:24;93862.75;;;23.68;43.39
33151;BME280;19508;42.578;23.416;2023-08-08T09:29:49;93872.00;;;23.55;42.82
33151;BME280;19508;42.578;23.416;2023-08-08T09:32:15;93857.25;;;23.68;41.90
33151;BME280;19508;42.578;23.416;2023-08-08T09:34:43;93870.44;;;23.75;40.76
33151;BME280;19508;42.578;23.416;2023-08-08T09:37:09;93885.72;;;23.63;41.07
33151;BME280;19508;42.578;23.416;2023-08-08T09:39:36;93877.88;;;23.74;40.94
33151;BME280;19508;42.578;23.416;2023-08-08T09:42:02;93880.16;;;23.72;41.10
33151;BME280;19508;42.578;23.416;2023-08-08T09:44:29;93884.19;;;24.37;39.74
33151;BME280;19508;42.578;23.416;2023-08-08T09:46:56;93885.91;;;24.42;38.36
33151;BME280;19508;42.578;23.416;2023-08-08T09:49:22;93874.00;;;24.38;40.69
33151;BME280;19508;42.578;23.416;2023-08-08T09:51:48;93880.59;;;24.04;40.05
33151;BME280;19508;42.578;23.416;2023-08-08T09:54:14;93888.44;;;23.43;40.78
33151;BME280;19508;42.578;23.416;2023-08-08T09:56:40;93893.97;;;23.63;44.44
33151;BME280;19508;42.578;23.416;2023-08-08T09:59:07;93884.00;;;24.01;41.16
33151;BME280;19508;42.578;23.416;2023-08-08T10:01:34;93876.09;;;23.78;39.08
33151;BME280;19508;42.578;23.416;2023-08-08T10:03:59;93883.34;;;24.04;41.46
33151;BME280;19508;42.578;23.416;2023-08-08T10:06:28;93889.03;;;23.78;40.92
33151;BME280;19508;42.578;23.416;2023-08-08T10:08:55;93872.00;;;23.84;41.68
33151;BME280;19508;42.578;23.416;2023-08-08T10:11:22;93876.06;;;24.20;40.69
33151;BME280;19508;42.578;23.416;2023-08-08T10:13:50;93874.47;;;24.19;40.36
33151;BME280;19508;42.578;23.416;2023-08-08T10:16:16;93865.91;;;24.54;41.42
33151;BME280;19508;42.578;23.416;2023-08-08T10:18:43;93861.31;;;24.58;38.74
33151;BME280;19508;42.578;23.416;2023-08-08T10:21:08;93852.56;;;24.43;40.26
33151;BME280;19508;42.578;23.416;2023-08-08T10:23:37;93866.19;;;24.40;39.62
33151;BME280;19508;42.578;23.416;2023-08-08T10:26:03;93862.25;;;24.62;38.99
33151;BME280;19508;42.578;23.416;2023-08-08T10:28:28;93859.50;;;24.62;38.41
33151;BME280;19508;42.578;23.416;2023-08-08T10:30:58;93867.16;;;24.56;39.73
33151;BME280;19508;42.578;23.416;2023-08-08T10:33:25;93856.78;;;24.86;40.51
33151;BME280;19508;42.578;23.416;2023-08-08T10:35:59;93862.78;;;24.88;37.60
33151;BME280;19508;42.578;23.416;2023-08-08T10:38:26;93859.56;;;24.98;36.68
33151;BME280;19508;42.578;23.416;2023-08-08T10:40:59;93850.56;;;24.65;40.03
33151;BME280;19508;42.578;23.416;2023-08-08T10:43:29;93853.13;;;24.82;37.60
33151;BME280;19508;42.578;23.416;2023-08-08T10:45:58;93855.56;;;24.96;36.83
33151;BME280;19508;42.578;23.416;2023-08-08T10:48:25;93851.00;;;25.24;38.09
33151;BME280;19508;42.578;23.416;2023-08-08T10:50:54;93840.75;;;25.49;36.51
33151;BME280;19508;42.578;23.416;2023-08-08T10:53:22;93843.88;;;25.11;38.34
33151;BME280;19508;42.578;23.416;2023-08-08T10:55:57;93840.88;;;24.46;39.84
33151;BME280;19508;42.578;23.416;2023-08-08T10:58:22;93840.72;;;24.76;36.19
33151;BME280;19508;42.578;23.416;2023-08-08T11:00:48;93843.72;;;24.83;37.04
33151;BME280;19508;42.578;23.416;2023-08-08T11:03:15;93843.66;;;24.59;37.13
33151;BME280;19508;42.578;23.416;2023-08-08T11:05:41;93842.09;;;24.70;36.91
33151;BME280;19508;42.578;23.416;2023-08-08T11:08:09;93837.75;;;24.81;38.18
33151;BME280;19508;42.578;23.416;2023-08-08T11:10:39;93835.03;;;25.06;36.59
33151;BME280;19508;42.578;23.416;2023-08-08T11:13:06;93832.97;;;25.27;35.80
33151;BME280;19508;42.578;23.416;2023-08-08T11:15:33;93833.41;;;25.41;35.90
33151;BME280;19508;42.578;23.416;2023-08-08T11:18:00;93838.69;;;25.34;36.26
33151;BME280;19508;42.578;23.416;2023-08-08T11:20:29;93817.53;;;25.63;37.01
33151;BME280;19508;42.578;23.416;2023-08-08T11:22:56;93828.91;;;25.73;34.89
33151;BME280;19508;42.578;23.416;2023-08-08T11:25:22;93837.09;;;25.21;35.94
33151;BME280;19508;42.578;23.416;2023-08-08T11:27:52;93829.81;;;24.92;36.20
33151;BME280;19508;42.578;23.416;2023-08-08T11:30:18;93828.25;;;25.03;40.44
33151;BME280;19508;42.578;23.416;2023-08-08T11:32:48;93830.34;;;25.06;38.81
33151;BME280;19508;42.578;23.416;2023-08-08T11:35:22;93826.31;;;25.16;37.07
33151;BME280;19508;42.578;23.416;2023-08-08T11:37:49;93839.69;;;24.93;36.68
33151;BME280;19508;42.578;23.416;2023-08-08T11:40:15;93826.31;;;25.16;35.58
33151;BME280;19508;42.578;23.416;2023-08-08T11:42:41;93820.56;;;24.96;36.30
33151;BME280;19508;42.578;23.416;2023-08-08T11:45:13;93820.56;;;25.21;35.76
33151;BME280;19508;42.578;23.416;2023-08-08T11:47:39;93827.00;;;25.13;38.08
33151;BME280;19508;42.578;23.416;2023-08-08T11:50:07;93821.22;;;25.54;36.93
33151;BME280;19508;42.578;23.416;2023-08-08T11:52:35;93820.31;;;25.50;36.76
33151;BME280;19508;42.578;23.416;2023-08-08T11:55:00;93812.41;;;25.49;34.87
33151;BME280;19508;42.578;23.416;2023-08-08T11:57:27;93818.13;;;25.56;36.33
33151;BME280;19508;42.578;23.416;2023-08-08T11:59:56;93815.25;;;25.65;35.06
33151;BME280;19508;42.578;23.416;2023-08-08T12:02:22;93816.44;;;25.02;37.19
33151;BME280;19508;42.578;23.416;2023-08-08T12:04:48;93811.38;;;25.17;37.00
33151;BME280;19508;42.578;23.416;2023-08-08T12:07:14;93812.66;;;25.31;35.46
33151;BME280;19508;42.578;23.416;2023-08-08T12:09:39;93812.28;;;25.21;36.15
33151;BME280;19508;42.578;23.416;2023-08-08T12:12:05;93811.59;;;25.48;37.07
33151;BME280;19508;42.578;23.416;2023-08-08T12:14:38;93815.69;;;25.79;35.92
33151;BME280;19508;42.578;23.416;2023-08-08T12:17:04;93809.47;;;25.70;36.24
33151;BME280;19508;42.578;23.416;2023-08-08T12:19:29;93802.13;;;25.62;35.10
33151;BME280;19508;42.578;23.416;2023-08-08T12:21:55;93796.13;;;25.84;36.39
33151;BME280;19508;42.578;23.416;2023-08-08T12:24:20;93803.44;;;25.40;37.33
33151;BME280;19508;42.578;23.416;2023-08-08T12:26:46;93799.47;;;25.90;37.38
33151;BME280;19508;42.578;23.416;2023-08-08T12:29:14;93807.81;;;25.93;35.72
33151;BME280;19508;42.578;23.416;2023-08-08T12:31:40;93800.44;;;25.97;34.47
33151;BME280;19508;42.578;23.416;2023-08-08T12:34:05;93789.13;;;26.74;33.60
33151;BME280;19508;42.578;23.416;2023-08-08T12:36:31;93791.50;;;27.70;31.62
33151;BME280;19508;42.578;23.416;2023-08-08T12:38:56;93788.03;;;28.31;30.62
33151;BME280;19508;42.578;23.416;2023-08-08T12:41:22;93786.75;;;28.90;30.12
33151;BME280;19508;42.578;23.416;2023-08-08T12:43:48;93783.84;;;29.56;29.95
33151;BME280;19508;42.578;23.416;2023-08-08T12:46:15;93782.84;;;30.65;28.49
33151;BME280;19508;42.578;23.416;2023-08-08T12:48:40;93777.97;;;31.36;26.35
33151;BME280;19508;42.578;23.416;2023-08-08T12:51:05;93777.97;;;31.36;26.31
33151;BME280;19508;42.578;23.416;2023-08-08T12:53:32;93783.16;;;33.22;24.45
33151;BME280;19508;42.578;23.416;2023-08-08T12:55:58;93776.78;;;33.54;24.96
33151;BME280;19508;42.578;23.416;2023-08-08T12:58:23;93769.19;;;33.93;24.29